sensor_id;sensor_type;location;lat;lon;timestamp;pressure;altitude;pressure_sealevel;temperature;humidity
67434;BME280;54305;47.950;6.572;2022-07-05T16:02:44;94778.75;;;25.38;29.37
67434;BME280;54305;47.950;6.572;2022-07-05T16:05:13;94779.22;;;24.79;30.57
67434;BME280;54305;47.950;6.572;2022-07-05T16:07:47;94775.13;;;24.60;32.38
67434;BME280;54305;47.950;6.572;2022-07-05T16:10:14;94767.34;;;25.14;30.38
67434;BME280;54305;47.950;6.572;2022-07-05T16:13:00;94768.81;;;25.05;32.25
67434;BME280;54305;47.950;6.572;2022-07-05T16:15:25;94775.19;;;24.76;32.04
67434;BME280;54305;47.950;6.572;2022-07-05T16:18:11;94780.59;;;25.09;31.97
67434;BME280;54305;47.950;6.572;2022-07-05T16:20:41;94776.41;;;25.13;30.73
67434;BME280;54305;47.950;6.572;2022-07-05T16:23:07;94774.13;;;25.05;32.78
67434;BME280;54305;47.950;6.572;2022-07-05T16:25:34;94768.00;;;24.65;33.22
67434;BME280;54305;47.950;6.572;2022-07-05T16:28:00;94759.25;;;25.09;33.04
67434;BME280;54305;47.950;6.572;2022-07-05T16:30:32;94745.00;;;25.15;33.62
67434;BME280;54305;47.950;6.572;2022-07-05T16:35:39;94758.44;;;24.92;33.93
67434;BME280;54305;47.950;6.572;2022-07-05T16:38:05;94767.28;;;24.81;34.56
67434;BME280;54305;47.950;6.572;2022-07-05T16:40:30;94758.00;;;24.84;33.57
67434;BME280;54305;47.950;6.572;2022-07-05T16:42:56;94752.53;;;24.62;33.71
67434;BME280;54305;47.950;6.572;2022-07-05T16:45:22;94753.56;;;24.89;33.77
67434;BME280;54305;47.950;6.572;2022-07-05T16:47:48;94745.97;;;24.30;36.28
67434;BME280;54305;47.950;6.572;2022-07-05T16:50:18;94757.31;;;24.26;35.02
67434;BME280;54305;47.950;6.572;2022-07-05T16:52:47;94753.09;;;23.90;35.81
67434;BME280;54305;47.950;6.572;2022-07-05T16:55:18;94757.44;;;24.19;36.23
67434;BME280;54305;47.950;6.572;2022-07-05T16:57:44;94759.63;;;24.34;35.17
67434;BME280;54305;47.950;6.572;2022-07-05T17:00:10;94763.25;;;23.93;34.94
67434;BME280;54305;47.950;6.572;2022-07-05T17:05:05;94762.88;;;24.24;36.13
67434;BME280;54305;47.950;6.572;2022-07-05T17:07:31;94763.94;;;24.23;37.77
67434;BME280;54305;47.950;6.572;2022-07-05T17:10:01;94760.91;;;24.08;37.01
67434;BME280;54305;47.950;6.572;2022-07-05T17:12:28;94756.06;;;23.82;37.05
67434;BME280;54305;47.950;6.572;2022-07-05T17:14:57;94769.72;;;23.63;38.73
67434;BME280;54305;47.950;6.572;2022-07-05T17:17:22;94775.44;;;23.37;37.13
67434;BME280;54305;47.950;6.572;2022-07-05T17:19:48;94771.41;;;23.16;38.80
67434;BME280;54305;47.950;6.572;2022-07-05T17:22:14;94777.47;;;22.94;38.82
67434;BME280;54305;47.950;6.572;2022-07-05T17:24:40;94778.19;;;22.71;40.79
67434;BME280;54305;47.950;6.572;2022-07-05T17:27:06;94771.25;;;22.70;41.68
67434;BME280;54305;47.950;6.572;2022-07-05T17:29:32;94777.91;;;22.61;42.37
67434;BME280;54305;47.950;6.572;2022-07-05T22:10:07;95005.00;;;16.15;52.39
67434;BME280;54305;47.950;6.572;2022-07-05T22:16:42;95001.69;;;15.98;54.09
67434;BME280;54305;47.950;6.572;2022-07-05T22:40:15;95024.25;;;15.93;52.03
67434;BME280;54305;47.950;6.572;2022-07-05T23:13:48;95029.47;;;15.48;53.57
67434;BME280;54305;47.950;6.572;2022-07-05T23:16:28;95021.38;;;15.35;54.04
67434;BME280;54305;47.950;6.572;2022-07-05T23:19:29;95027.94;;;15.39;54.32
67434;BME280;54305;47.950;6.572;2022-07-05T23:26:00;95026.31;;;15.30;54.47
67434;BME280;54305;47.950;6.572;2022-07-05T23:28:36;95025.31;;;15.31;54.34
67434;BME280;54305;47.950;6.572;2022-07-05T23:31:13;95027.28;;;15.29;55.16
67434;BME280;54305;47.950;6.572;2022-07-05T23:33:58;95035.19;;;15.21;55.32
67434;BME280;54305;47.950;6.572;2022-07-05T23:36:23;95026.38;;;15.14;55.11
67434;BME280;54305;47.950;6.572;2022-07-05T23:38:49;95024.41;;;15.16;56.17
67434;BME280;54305;47.950;6.572;2022-07-05T23:44:37;95023.28;;;15.10;56.42
